Time;durP1;ratioP1;P1;durP2;ratioP2;P2;SDS_P1;SDS_P2;PMS_P1;PMS_P2;Temp;Humidity;BMP_temperature;BMP_pressure;BME280_temperature;BME280_humidity;BME280_pressure;Samples;Min_cycle;Max_cycle;Signal;HPM_P1;HPM_P2
2022/08/27 03:02:03;;;;;;;5.57;3.05;;;19.50;99.90;;;;;;5435246;23;93968;-72
2022/08/27 03:04:29;;;;;;;5.65;2.65;;;19.40;99.90;;;;;;4808115;29;91246;-67
2022/08/27 03:06:55;;;;;;;5.15;2.60;;;19.30;99.90;;;;;;4803901;29;91684;-70
2022/08/27 03:09:21;;;;;;;4.28;2.90;;;19.30;99.90;;;;;;4803410;29;91413;-69
2022/08/27 03:11:47;;;;;;;5.22;2.50;;;19.30;99.90;;;;;;4808573;29;93262;-67
2022/08/27 03:14:12;;;;;;;5.95;3.00;;;19.30;99.90;;;;;;4806256;29;93833;-68
2022/08/27 03:16:39;;;;;;;5.50;3.08;;;19.20;99.90;;;;;;4785294;29;91605;-69
2022/08/27 03:19:06;;;;;;;5.07;2.40;;;19.00;99.90;;;;;;4784153;29;91818;-69
2022/08/27 03:21:33;;;;;;;4.50;2.05;;;19.10;99.90;;;;;;4803131;29;93595;-69
2022/08/27 03:24:00;;;;;;;5.60;2.58;;;19.20;99.90;;;;;;4821393;29;92432;-70
2022/08/27 03:26:27;;;;;;;3.65;2.15;;;19.40;99.90;;;;;;4821429;29;91983;-70
2022/08/27 03:28:54;;;;;;;5.15;2.40;;;19.20;99.90;;;;;;4821180;29;91175;-72
2022/08/27 03:31:25;;;;;;;4.57;2.85;;;19.10;99.90;;;;;;4814723;29;91588;-70
2022/08/27 03:34:03;;;;;;;3.83;2.35;;;19.00;99.90;;;;;;4793530;29;93375;-71
2022/08/27 03:36:30;;;;;;;4.55;2.55;;;19.00;99.90;;;;;;4821603;29;92269;-69
2022/08/27 03:38:56;;;;;;;4.45;2.30;;;19.00;99.90;;;;;;4821629;29;91861;-70
2022/08/27 03:41:22;;;;;;;3.97;2.42;;;19.10;99.90;;;;;;4818194;29;92222;-71
2022/08/27 03:43:51;;;;;;;3.97;2.35;;;19.00;99.90;;;;;;4821245;29;93617;-70
2022/08/27 03:46:19;;;;;;;7.30;2.95;;;19.00;99.90;;;;;;4821158;29;92005;-69
2022/08/27 03:48:45;;;;;;;5.95;2.80;;;19.00;99.90;;;;;;4809472;29;91403;-70
2022/08/27 03:51:13;;;;;;;6.95;2.92;;;18.90;99.90;;;;;;4794216;29;91691;-70
2022/08/27 03:53:41;;;;;;;3.67;1.65;;;19.00;99.90;;;;;;4819273;29;94360;-69
2022/08/27 03:56:07;;;;;;;4.55;2.65;;;19.10;99.90;;;;;;4821648;29;91704;-70
2022/08/27 03:58:34;;;;;;;7.13;2.83;;;19.10;99.90;;;;;;4822499;29;91678;-70
2022/08/27 04:01:00;;;;;;;4.30;2.72;;;19.00;99.90;;;;;;4822361;29;92723;-72
2022/08/27 04:03:26;;;;;;;5.50;2.85;;;18.90;99.90;;;;;;4802430;29;94082;-69
2022/08/27 04:05:57;;;;;;;4.55;2.83;;;18.80;99.90;;;;;;4791165;29;91459;-70
2022/08/27 04:08:24;;;;;;;7.80;3.58;;;18.90;99.90;;;;;;4787529;29;91402;-70
2022/08/27 04:10:50;;;;;;;7.55;2.88;;;18.90;99.90;;;;;;4806073;29;92251;-71
2022/08/27 04:13:16;;;;;;;6.10;2.97;;;18.90;99.90;;;;;;4814447;29;91993;-71
2022/08/27 04:15:44;;;;;;;6.32;2.85;;;18.90;99.90;;;;;;4794303;29;91707;-72
2022/08/27 04:18:11;;;;;;;4.68;2.63;;;19.00;99.90;;;;;;4808414;29;91212;-72
2022/08/27 04:20:37;;;;;;;5.22;2.70;;;18.90;99.90;;;;;;4794209;29;92259;-71
2022/08/27 04:23:04;;;;;;;5.30;2.90;;;18.80;99.90;;;;;;4807101;29;91533;-72
2022/08/27 04:25:30;;;;;;;5.63;2.72;;;18.80;99.90;;;;;;4805272;29;92783;-70
2022/08/27 04:27:56;;;;;;;5.35;3.15;;;18.80;99.90;;;;;;4805418;29;92133;-71
2022/08/27 04:30:22;;;;;;;6.05;2.97;;;18.90;99.90;;;;;;4791834;29;94523;-71
2022/08/27 04:32:49;;;;;;;5.90;2.88;;;18.80;99.90;;;;;;4802637;29;92254;-69
2022/08/27 04:35:15;;;;;;;5.45;2.90;;;18.80;99.90;;;;;;4802109;29;91401;-70
2022/08/27 04:37:42;;;;;;;5.85;2.83;;;18.90;99.90;;;;;;4796994;29;91782;-70
2022/08/27 04:40:08;;;;;;;4.43;2.78;;;18.90;99.90;;;;;;4800052;29;93760;-70
2022/08/27 04:42:34;;;;;;;4.75;3.13;;;19.00;99.90;;;;;;4805740;29;93797;-71
2022/08/27 04:45:01;;;;;;;4.85;3.05;;;19.00;99.90;;;;;;4792088;29;92180;-71
2022/08/27 04:47:27;;;;;;;4.53;3.08;;;19.10;99.90;;;;;;4809294;29;92492;-72
2022/08/27 04:49:53;;;;;;;6.65;2.95;;;18.90;99.90;;;;;;4794547;29;92886;-73
2022/08/27 04:52:20;;;;;;;7.05;3.22;;;18.80;99.90;;;;;;4811780;29;92981;-69
2022/08/27 04:54:45;;;;;;;5.47;3.10;;;18.60;99.90;;;;;;4807578;29;91589;-70
2022/08/27 04:57:11;;;;;;;8.23;3.72;;;18.50;99.90;;;;;;4809835;29;91770;-71
2022/08/27 04:59:37;;;;;;;6.22;3.13;;;18.60;99.90;;;;;;4803758;29;91736;-71
2022/08/27 05:02:07;;;;;;;6.60;3.80;;;18.70;99.90;;;;;;4802975;29;92454;-67
2022/08/27 05:04:36;;;;;;;5.75;3.17;;;18.70;99.90;;;;;;4796591;29;92682;-72
2022/08/27 05:07:03;;;;;;;6.25;3.00;;;18.70;99.90;;;;;;4799823;29;91034;-71
2022/08/27 05:09:29;;;;;;;6.18;3.42;;;18.90;99.90;;;;;;4800449;29;93162;-71
2022/08/27 05:11:55;;;;;;;5.63;2.83;;;19.10;99.90;;;;;;4804284;29;92425;-69
2022/08/27 05:14:22;;;;;;;5.93;2.95;;;19.20;99.90;;;;;;4803844;29;92468;-67
2022/08/27 05:16:48;;;;;;;5.07;2.88;;;19.30;99.90;;;;;;4803481;29;92005;-72
2022/08/27 05:19:15;;;;;;;5.97;2.40;;;19.30;99.90;;;;;;4801938;29;92179;-70
2022/08/27 05:21:46;;;;;;;6.55;2.03;;;19.30;99.90;;;;;;4802515;29;92132;-71
2022/08/27 05:24:12;;;;;;;5.65;3.08;;;19.40;99.90;;;;;;4801445;29;91673;-71
2022/08/27 05:26:38;;;;;;;5.43;2.85;;;19.30;99.90;;;;;;4807525;29;92042;-73
2022/08/27 05:29:05;;;;;;;4.90;2.90;;;19.10;99.90;;;;;;4800228;29;93813;-69
2022/08/27 05:31:31;;;;;;;5.32;2.85;;;19.00;99.90;;;;;;4803326;29;94190;-73
2022/08/27 05:33:58;;;;;;;5.18;2.67;;;19.10;99.90;;;;;;4798678;29;92301;-69
2022/08/27 05:36:30;;;;;;;6.28;3.47;;;19.20;99.90;;;;;;4804288;29;92049;-70
2022/08/27 05:38:57;;;;;;;8.55;4.25;;;19.30;99.90;;;;;;4803535;29;92629;-70
2022/08/27 05:41:26;;;;;;;7.85;4.25;;;19.10;99.90;;;;;;4804021;29;93426;-75
2022/08/27 05:43:54;;;;;;;7.85;3.25;;;18.70;99.90;;;;;;4809502;29;91695;-71
2022/08/27 05:46:22;;;;;;;8.52;4.57;;;18.80;99.90;;;;;;4802781;29;91749;-71
2022/08/27 05:48:49;;;;;;;6.78;4.18;;;18.80;99.90;;;;;;4799953;29;91886;-70
2022/08/27 05:51:19;;;;;;;6.85;4.95;;;18.80;99.90;;;;;;4806388;29;91964;-71
2022/08/27 05:53:45;;;;;;;10.95;4.75;;;18.70;99.90;;;;;;4804437;29;91681;-71
2022/08/27 05:56:24;;;;;;;7.82;4.45;;;18.60;99.90;;;;;;4805604;29;91233;-71
2022/08/27 06:01:37;;;;;;;8.90;5.82;;;18.60;99.90;;;;;;4802597;29;92427;-70
2022/08/27 06:04:04;;;;;;;7.93;5.55;;;18.40;99.90;;;;;;4803129;29;92430;-70
2022/08/27 06:06:34;;;;;;;8.88;5.70;;;18.30;99.90;;;;;;4801845;29;91558;-72
2022/08/27 06:08:59;;;;;;;9.80;5.13;;;18.40;99.90;;;;;;4803718;29;92379;-72
2022/08/27 06:11:25;;;;;;;14.90;5.65;;;18.30;99.90;;;;;;4807265;29;91443;-71
2022/08/27 06:13:51;;;;;;;9.95;5.20;;;18.40;99.90;;;;;;4807205;29;91504;-70
2022/08/27 06:16:18;;;;;;;10.25;5.28;;;18.50;99.90;;;;;;4804746;29;92037;-71
2022/08/27 06:18:45;;;;;;;9.35;5.28;;;18.50;99.90;;;;;;4802690;29;92435;-71
2022/08/27 06:21:12;;;;;;;13.68;6.35;;;18.60;99.90;;;;;;4802239;29;92425;-71
2022/08/27 06:23:39;;;;;;;11.82;6.75;;;18.60;99.90;;;;;;4800526;29;92095;-70
2022/08/27 06:26:10;;;;;;;11.63;5.93;;;18.50;99.90;;;;;;4803608;29;91524;-70
2022/08/27 06:28:40;;;;;;;9.90;6.47;;;18.50;99.90;;;;;;4802446;29;93199;-70
2022/08/27 06:31:18;;;;;;;8.93;5.80;;;18.60;99.90;;;;;;4803115;29;93334;-70
2022/08/27 06:33:45;;;;;;;11.00;5.45;;;18.60;99.90;;;;;;4803904;29;91258;-70
2022/08/27 06:36:14;;;;;;;8.25;5.38;;;18.80;99.90;;;;;;4803999;29;91648;-69
2022/08/27 06:38:42;;;;;;;8.70;5.22;;;18.90;99.90;;;;;;4794527;29;92284;-70
2022/08/27 06:41:09;;;;;;;11.02;5.57;;;19.00;99.90;;;;;;4803291;29;91813;-70
2022/08/27 06:43:36;;;;;;;10.40;6.20;;;19.00;99.90;;;;;;4803693;29;91843;-70
2022/08/27 06:46:04;;;;;;;9.23;5.55;;;19.10;99.90;;;;;;4802140;29;90954;-70
2022/08/27 06:48:30;;;;;;;8.65;4.65;;;19.20;99.90;;;;;;4803268;29;92606;-70
2022/08/27 06:50:55;;;;;;;8.80;4.82;;;19.30;99.90;;;;;;4804769;29;91762;-69
2022/08/27 06:53:21;;;;;;;9.90;5.47;;;19.30;99.90;;;;;;4802901;29;93028;-70
2022/08/27 06:55:48;;;;;;;8.88;5.03;;;19.40;99.90;;;;;;4797702;29;91342;-69
2022/08/27 06:58:15;;;;;;;7.53;4.75;;;19.50;99.90;;;;;;4797960;29;91952;-69
2022/08/27 07:00:43;;;;;;;8.00;4.88;;;19.60;99.90;;;;;;4798684;29;91783;-69
2022/08/27 07:03:09;;;;;;;6.88;4.57;;;19.70;99.90;;;;;;4793326;29;91877;-69
2022/08/27 07:05:37;;;;;;;7.57;4.80;;;19.80;99.90;;;;;;4803854;29;91759;-70
2022/08/27 07:08:04;;;;;;;10.63;5.28;;;19.90;99.90;;;;;;4802688;29;92885;-69
2022/08/27 07:10:30;;;;;;;7.95;5.05;;;19.80;99.90;;;;;;4802194;29;92476;-69
2022/08/27 07:12:56;;;;;;;8.25;4.95;;;19.60;99.90;;;;;;4796237;29;92052;-69
2022/08/27 07:15:22;;;;;;;8.30;4.80;;;19.70;99.90;;;;;;4798963;29;91370;-69
2022/08/27 07:17:48;;;;;;;8.32;5.00;;;19.70;99.90;;;;;;4801947;29;92643;-70
2022/08/27 07:20:15;;;;;;;8.73;5.03;;;19.70;99.90;;;;;;4807492;29;93214;-69
2022/08/27 07:22:42;;;;;;;7.95;4.45;;;19.90;99.90;;;;;;4803243;29;91838;-70
2022/08/27 07:25:11;;;;;;;11.27;4.70;;;20.00;99.90;;;;;;4802573;29;91827;-70
2022/08/27 07:27:38;;;;;;;7.80;5.00;;;20.20;99.90;;;;;;4793097;29;92324;-69
2022/08/27 07:30:07;;;;;;;10.32;5.47;;;20.30;99.90;;;;;;4805242;29;92700;-69
2022/08/27 07:32:33;;;;;;;8.38;4.55;;;20.20;99.90;;;;;;4802068;29;92519;-70
2022/08/27 07:34:59;;;;;;;8.55;5.22;;;20.40;99.90;;;;;;4802959;29;91557;-70
2022/08/27 07:37:25;;;;;;;7.95;4.45;;;20.60;99.90;;;;;;4801020;29;92798;-71
2022/08/27 07:39:50;;;;;;;5.75;3.95;;;20.60;99.90;;;;;;4801442;29;92112;-70
2022/08/27 07:45:00;;;;;;;5.95;3.60;;;21.20;99.90;;;;;;4801689;29;91783;-70
2022/08/27 07:47:26;;;;;;;6.45;2.75;;;21.50;99.90;;;;;;4797657;29;92805;-70
2022/08/27 07:49:52;;;;;;;4.80;3.28;;;21.80;99.90;;;;;;4802098;29;91722;-70
2022/08/27 07:52:18;;;;;;;5.57;3.22;;;22.00;99.90;;;;;;4802335;29;91930;-70
2022/08/27 07:54:44;;;;;;;7.03;3.10;;;22.20;99.90;;;;;;4803501;29;92278;-70
2022/08/27 07:57:10;;;;;;;7.35;3.45;;;22.40;99.90;;;;;;4802804;29;92901;-70
2022/08/27 07:59:36;;;;;;;4.05;2.67;;;22.50;99.90;;;;;;4800110;29;91943;-70
2022/08/27 08:02:03;;;;;;;5.38;3.00;;;22.60;99.90;;;;;;4796076;29;91978;-70
2022/08/27 08:04:29;;;;;;;5.55;3.03;;;22.60;99.90;;;;;;4799935;29;91937;-70
2022/08/27 08:06:55;;;;;;;3.33;2.20;;;22.70;99.90;;;;;;4801424;29;93743;-69
2022/08/27 08:09:22;;;;;;;3.50;2.10;;;22.80;98.50;;;;;;4800747;29;92901;-70
2022/08/27 08:11:49;;;;;;;8.57;2.30;;;22.70;97.70;;;;;;4795431;29;92323;-70
2022/08/27 08:14:15;;;;;;;4.25;2.90;;;22.60;95.60;;;;;;4798794;29;91364;-70
2022/08/27 08:16:41;;;;;;;4.10;2.28;;;22.50;96.90;;;;;;4803278;29;92280;-70
2022/08/27 08:19:08;;;;;;;4.15;2.92;;;22.30;98.10;;;;;;4802842;29;92455;-70
2022/08/27 08:21:34;;;;;;;5.07;3.10;;;22.20;97.50;;;;;;4802684;29;91312;-70
2022/08/27 08:24:01;;;;;;;4.40;2.63;;;22.20;99.00;;;;;;4802243;29;91026;-69
2022/08/27 08:26:27;;;;;;;4.25;2.70;;;22.30;97.90;;;;;;4809223;29;91917;-69
2022/08/27 08:28:53;;;;;;;3.30;2.28;;;22.40;97.90;;;;;;4801644;29;91977;-70
2022/08/27 08:31:20;;;;;;;3.67;2.03;;;22.70;97.60;;;;;;4802155;29;92725;-70
2022/08/27 08:33:47;;;;;;;4.18;2.25;;;22.90;95.80;;;;;;4802253;29;91684;-70
2022/08/27 08:36:15;;;;;;;5.75;1.92;;;23.20;94.70;;;;;;4807432;29;93056;-70
2022/08/27 08:38:42;;;;;;;3.58;2.22;;;23.50;93.50;;;;;;4801431;29;92476;-69
2022/08/27 08:41:24;;;;;;;3.38;1.92;;;23.60;93.20;;;;;;4802334;29;92090;-70
2022/08/27 08:43:50;;;;;;;;;;;23.70;94.10;;;;;;4791808;29;91447;-70
2022/08/27 08:46:29;;;;;;;5.00;2.13;;;23.90;92.90;;;;;;4807845;29;92157;-70
2022/08/27 08:48:59;;;;;;;3.47;2.17;;;24.00;92.60;;;;;;4805236;29;91995;-70
2022/08/27 08:51:34;;;;;;;4.28;1.90;;;23.90;94.20;;;;;;4805211;29;92164;-70
2022/08/27 08:54:09;;;;;;;4.15;2.85;;;24.20;92.20;;;;;;4804969;29;91858;-70
2022/08/27 08:56:46;;;;;;;3.72;2.20;;;23.90;91.80;;;;;;4804073;29;93695;-71
2022/08/27 08:59:32;;;;;;;5.00;2.42;;;23.50;94.00;;;;;;4804609;29;92597;-71
2022/08/27 09:01:58;;;;;;;5.85;2.13;;;23.40;94.10;;;;;;4804636;29;91363;-71
2022/08/27 09:04:26;;;;;;;2.90;1.77;;;23.30;93.10;;;;;;4796399;29;91964;-70
2022/08/27 09:07:01;;;;;;;4.10;1.65;;;23.50;92.70;;;;;;4807132;29;92808;-71
2022/08/27 09:09:47;;;;;;;3.17;2.38;;;23.80;92.80;;;;;;4804203;29;91560;-70
2022/08/27 09:12:21;;;;;;;2.63;1.60;;;24.20;91.90;;;;;;4795150;29;91730;-71
2022/08/27 09:14:55;;;;;;;4.95;1.90;;;24.70;91.10;;;;;;4808507;29;91336;-71
2022/08/27 09:17:22;;;;;;;3.75;1.63;;;24.90;90.00;;;;;;4804396;29;92158;-70
2022/08/27 09:19:47;;;;;;;3.08;1.70;;;24.90;90.30;;;;;;4804602;29;93683;-71
2022/08/27 09:22:23;;;;;;;3.47;1.63;;;24.80;90.10;;;;;;4803893;29;93518;-71
2022/08/27 09:25:20;;;;;;;3.17;1.40;;;24.90;88.90;;;;;;4805515;29;92200;-72
2022/08/27 09:27:48;;;;;;;3.25;1.83;;;25.00;84.70;;;;;;4795995;29;91642;-71
2022/08/27 09:30:23;;;;;;;3.63;1.55;;;24.80;88.20;;;;;;4803447;29;92109;-71
2022/08/27 09:32:55;;;;;;;3.63;1.40;;;24.80;89.20;;;;;;4805008;29;91945;-70
2022/08/27 09:35:22;;;;;;;2.47;1.60;;;24.80;87.30;;;;;;4804786;29;91470;-71
2022/08/27 09:37:52;;;;;;;2.83;1.42;;;25.10;85.80;;;;;;4804131;29;92311;-71
2022/08/27 09:40:25;;;;;;;3.13;1.75;;;25.10;86.70;;;;;;4804613;29;91246;-72
2022/08/27 09:42:54;;;;;;;2.95;1.55;;;25.20;84.50;;;;;;4793586;29;91327;-71
2022/08/27 09:45:23;;;;;;;4.38;1.98;;;25.60;84.80;;;;;;4802349;29;92040;-72
2022/08/27 09:48:13;;;;;;;2.92;1.85;;;25.70;82.90;;;;;;4807515;29;93291;-71
2022/08/27 09:50:52;;;;;;;3.33;1.20;;;26.20;82.00;;;;;;4804578;29;92831;-71
2022/08/27 09:53:22;;;;;;;2.85;1.45;;;27.00;79.10;;;;;;4803892;29;91350;-71
2022/08/27 09:56:03;;;;;;;4.45;1.38;;;27.40;77.10;;;;;;4812751;29;91872;-71
2022/08/27 09:58:33;;;;;;;2.10;1.23;;;27.80;74.90;;;;;;4793543;29;92124;-71
2022/08/27 10:01:03;;;;;;;3.78;1.95;;;28.60;72.80;;;;;;4803833;29;92000;-72
2022/08/27 10:03:29;;;;;;;2.03;1.55;;;29.70;68.30;;;;;;4802574;29;91463;-71
2022/08/27 10:05:55;;;;;;;3.28;1.65;;;29.20;68.30;;;;;;4805750;29;91003;-71
2022/08/27 10:08:37;;;;;;;3.13;1.67;;;28.20;70.50;;;;;;4803085;29;93439;-72
2022/08/27 10:11:30;;;;;;;2.75;1.73;;;27.80;71.40;;;;;;4798904;29;92045;-71
2022/08/27 10:14:13;;;;;;;2.80;1.55;;;27.10;73.50;;;;;;4803705;29;92967;-71
2022/08/27 10:16:51;;;;;;;2.70;1.50;;;26.60;77.50;;;;;;4802407;29;92203;-72
2022/08/27 10:19:41;;;;;;;2.67;1.77;;;26.40;76.50;;;;;;4799901;29;92774;-72
2022/08/27 10:22:09;;;;;;;5.15;2.33;;;26.00;78.40;;;;;;4801414;29;92321;-73
2022/08/27 10:25:00;;;;;;;2.97;1.23;;;26.00;77.90;;;;;;4803107;29;91320;-72
2022/08/27 10:27:48;;;;;;;4.38;1.92;;;25.60;78.20;;;;;;4801960;29;93747;-71
2022/08/27 10:30:19;;;;;;;4.68;1.65;;;25.90;77.70;;;;;;4803438;29;92535;-72
2022/08/27 10:32:53;;;;;;;3.58;1.48;;;26.10;76.50;;;;;;4803936;29;92208;-72
2022/08/27 10:35:39;;;;;;;2.70;1.65;;;26.10;75.50;;;;;;4805119;29;92102;-71
2022/08/27 10:38:14;;;;;;;2.65;1.40;;;26.30;75.20;;;;;;4802711;29;91590;-71
2022/08/27 10:40:47;;;;;;;2.80;1.48;;;25.80;77.90;;;;;;4793433;29;93538;-71
2022/08/27 10:43:26;;;;;;;1.75;1.15;;;25.90;77.10;;;;;;4797401;29;92114;-71
2022/08/27 10:46:18;;;;;;;2.70;1.73;;;25.70;76.70;;;;;;4812002;29;91431;-71
2022/08/27 10:49:08;;;;;;;2.78;1.65;;;25.60;77.00;;;;;;4801056;29;92146;-72
2022/08/27 10:51:50;;;;;;;4.30;2.22;;;25.60;78.60;;;;;;4802960;29;92759;-72
2022/08/27 10:54:38;;;;;;;3.03;1.65;;;25.60;78.20;;;;;;4795279;29;91897;-72
2022/08/27 10:57:11;;;;;;;2.78;1.70;;;25.90;78.40;;;;;;4814263;29;91899;-71
2022/08/27 10:59:49;;;;;;;2.78;1.45;;;26.10;77.90;;;;;;4803706;29;91258;-72
2022/08/27 11:02:25;;;;;;;4.60;1.80;;;26.60;74.80;;;;;;4802479;29;92765;-74
2022/08/27 11:04:58;;;;;;;3.63;2.00;;;26.70;73.90;;;;;;4793691;29;91767;-71
2022/08/27 11:07:32;;;;;;;3.75;2.03;;;26.30;75.70;;;;;;4802557;29;93189;-72
2022/08/27 11:10:04;;;;;;;3.58;2.13;;;26.30;77.60;;;;;;4802745;29;91442;-72
2022/08/27 11:12:40;;;;;;;2.65;1.67;;;26.10;77.20;;;;;;4801146;29;92349;-72
2022/08/27 11:15:29;;;;;;;3.15;1.50;;;25.80;77.90;;;;;;4801569;29;92208;-71
2022/08/27 11:18:07;;;;;;;3.35;2.10;;;25.30;79.90;;;;;;4793732;29;91660;-72
2022/08/27 11:21:03;;;;;;;3.05;1.70;;;25.60;79.30;;;;;;4803230;29;91370;-72
2022/08/27 11:23:44;;;;;;;2.58;1.52;;;25.30;79.60;;;;;;4802621;29;92291;-72
2022/08/27 11:26:11;;;;;;;2.55;1.73;;;25.60;79.00;;;;;;4790219;29;91214;-72
2022/08/27 11:28:41;;;;;;;3.60;1.85;;;25.50;78.50;;;;;;4799633;29;91759;-72
2022/08/27 11:31:13;;;;;;;3.97;1.83;;;25.80;78.00;;;;;;4803993;29;91614;-71
2022/08/27 11:34:12;;;;;;;2.97;1.70;;;25.70;78.50;;;;;;4802231;29;93364;-71
2022/08/27 11:36:46;;;;;;;3.58;1.60;;;26.00;77.80;;;;;;4802461;29;93009;-73
2022/08/27 11:39:52;;;;;;;3.53;1.65;;;26.10;77.00;;;;;;4802990;29;92333;-72
2022/08/27 11:42:43;;;;;;;3.70;2.25;;;25.50;78.10;;;;;;4787770;29;92051;-71
2022/08/27 11:45:20;;;;;;;2.05;1.08;;;25.20;79.90;;;;;;4803141;29;92553;-72
2022/08/27 11:47:54;;;;;;;1.95;1.10;;;25.70;78.10;;;;;;4807970;29;92142;-73
2022/08/27 11:50:21;;;;;;;2.75;1.83;;;25.80;77.70;;;;;;4792193;29;91897;-72
2022/08/27 11:52:57;;;;;;;2.33;1.08;;;25.90;74.90;;;;;;4802831;29;91088;-71
2022/08/27 11:55:35;;;;;;;4.85;1.23;;;25.90;75.00;;;;;;4804175;29;92252;-72
2022/08/27 11:58:05;;;;;;;2.42;1.30;;;26.00;74.20;;;;;;4803502;29;92021;-72
2022/08/27 12:00:35;;;;;;;2.05;0.93;;;25.90;73.50;;;;;;4802167;29;92409;-72
2022/08/27 12:03:09;;;;;;;3.38;1.35;;;25.80;75.50;;;;;;4789292;29;92057;-71
2022/08/27 12:05:40;;;;;;;1.90;1.13;;;26.10;73.00;;;;;;4799907;29;91888;-72
2022/08/27 12:08:11;;;;;;;2.72;0.90;;;26.10;71.90;;;;;;4804247;29;91701;-73
2022/08/27 12:10:56;;;;;;;1.73;0.95;;;26.30;72.80;;;;;;4802310;29;91364;-72
2022/08/27 12:13:24;;;;;;;4.43;1.52;;;26.40;71.80;;;;;;4802177;29;91985;-72
2022/08/27 12:16:02;;;;;;;1.70;0.90;;;26.50;72.50;;;;;;4800802;29;92099;-72
2022/08/27 12:18:40;;;;;;;1.98;0.90;;;26.40;72.30;;;;;;4797217;29;92438;-72
2022/08/27 12:21:42;;;;;;;1.88;1.13;;;26.50;72.90;;;;;;4805834;29;91591;-72
2022/08/27 12:24:38;;;;;;;1.67;0.90;;;26.80;70.00;;;;;;4766040;29;91554;-73
2022/08/27 12:27:27;;;;;;;2.60;1.30;;;26.90;69.00;;;;;;4804667;29;92711;-72
2022/08/27 12:29:58;;;;;;;3.88;0.95;;;26.60;68.80;;;;;;4801944;29;93221;-71
2022/08/27 12:32:38;;;;;;;2.05;1.23;;;26.50;70.00;;;;;;4805489;29;91432;-70
2022/08/27 12:35:11;;;;;;;1.92;1.02;;;26.60;71.20;;;;;;4804247;29;91883;-71
2022/08/27 12:37:40;;;;;;;2.13;0.85;;;27.00;69.00;;;;;;4800327;29;91855;-71
2022/08/27 12:40:18;;;;;;;2.08;0.88;;;27.00;70.20;;;;;;4804615;29;92327;-73
2022/08/27 12:42:44;;;;;;;4.03;1.00;;;27.20;70.70;;;;;;4805499;29;91288;-72
2022/08/27 12:45:18;;;;;;;2.00;1.30;;;27.30;68.20;;;;;;4804767;29;91156;-71
2022/08/27 12:47:44;;;;;;;2.78;1.02;;;26.80;68.10;;;;;;4811720;29;94216;-71
2022/08/27 12:50:11;;;;;;;2.50;1.42;;;26.40;69.00;;;;;;4804243;29;91563;-71
2022/08/27 12:53:14;;;;;;;3.28;1.10;;;26.30;69.60;;;;;;4799942;29;93016;-72
2022/08/27 12:56:09;;;;;;;2.33;1.20;;;26.50;68.20;;;;;;4800554;29;91644;-73
2022/08/27 12:58:54;;;;;;;1.92;1.10;;;26.60;69.90;;;;;;4795619;29;92266;-71
2022/08/27 13:01:57;;;;;;;3.10;1.20;;;27.10;66.60;;;;;;4804101;29;92505;-72
2022/08/27 13:04:30;;;;;;;2.92;1.02;;;26.80;67.70;;;;;;4804847;29;91835;-72
2022/08/27 13:06:57;;;;;;;2.95;1.50;;;26.60;69.20;;;;;;4806054;29;92098;-73
2022/08/27 13:09:37;;;;;;;2.85;1.17;;;26.60;66.60;;;;;;4804385;29;92110;-73
2022/08/27 13:12:18;;;;;;;5.20;1.80;;;26.10;68.50;;;;;;4800191;29;92144;-72
2022/08/27 13:14:44;;;;;;;1.77;1.20;;;26.50;68.30;;;;;;4795859;29;91682;-71
2022/08/27 13:17:22;;;;;;;4.75;1.45;;;26.80;67.00;;;;;;4811923;29;91893;-72
2022/08/27 13:19:59;;;;;;;2.50;1.35;;;26.50;67.30;;;;;;4812211;29;93926;-71
2022/08/27 13:22:37;;;;;;;3.03;1.42;;;26.70;68.30;;;;;;4804396;29;92340;-72
2022/08/27 13:25:05;;;;;;;3.47;1.58;;;27.00;68.80;;;;;;4801480;29;91342;-72
2022/08/27 13:27:34;;;;;;;3.17;1.55;;;26.90;67.10;;;;;;4806349;29;91822;-72
2022/08/27 13:30:07;;;;;;;3.42;1.77;;;26.80;66.60;;;;;;4813917;29;92233;-72
2022/08/27 13:32:34;;;;;;;3.60;1.80;;;26.90;67.50;;;;;;4803568;29;93939;-73
2022/08/27 13:35:01;;;;;;;5.88;1.90;;;26.90;68.10;;;;;;4804699;29;91814;-72
2022/08/27 13:37:46;;;;;;;3.25;1.70;;;26.80;68.30;;;;;;4807748;29;90712;-72
2022/08/27 13:41:05;;;;;;;4.22;2.03;;;26.90;68.80;;;;;;4804443;29;91669;-72
2022/08/27 13:43:38;;;;;;;3.28;1.98;;;26.60;69.40;;;;;;4764683;29;92335;-69
2022/08/27 13:46:22;;;;;;;3.03;1.63;;;26.40;67.20;;;;;;4802334;29;92764;-73
2022/08/27 13:48:51;;;;;;;3.75;2.10;;;26.50;68.70;;;;;;4804888;29;91952;-70
2022/08/27 13:51:34;;;;;;;4.43;1.98;;;26.40;69.40;;;;;;4803922;29;92367;-70
2022/08/27 13:54:12;;;;;;;4.00;1.83;;;26.20;70.50;;;;;;4804831;29;92736;-72
2022/08/27 13:56:45;;;;;;;4.47;1.90;;;26.00;70.60;;;;;;4803643;29;91908;-71
2022/08/27 13:59:17;;;;;;;4.20;2.03;;;26.20;69.80;;;;;;4804257;29;91951;-72
2022/08/27 14:02:09;;;;;;;4.95;2.72;;;25.90;69.90;;;;;;4799845;29;92919;-72
2022/08/27 14:04:42;;;;;;;5.80;2.97;;;25.90;68.20;;;;;;4802829;29;91985;-72
2022/08/27 14:07:26;;;;;;;4.43;2.45;;;26.00;68.90;;;;;;4794491;29;91809;-71
2022/08/27 14:10:17;;;;;;;3.75;2.50;;;26.40;69.80;;;;;;4792090;29;92189;-73
2022/08/27 14:12:54;;;;;;;5.30;3.10;;;26.50;67.60;;;;;;4796510;29;92621;-73
2022/08/27 14:15:37;;;;;;;4.63;2.60;;;26.60;67.50;;;;;;4798510;29;92124;-72
2022/08/27 14:18:05;;;;;;;3.67;2.35;;;26.80;67.40;;;;;;4796154;29;91889;-74
2022/08/27 14:20:32;;;;;;;3.70;2.60;;;26.60;66.30;;;;;;4802389;29;92362;-72
2022/08/27 14:22:58;;;;;;;4.57;2.72;;;26.60;68.80;;;;;;4803641;29;91660;-72
2022/08/27 14:25:24;;;;;;;3.97;2.50;;;26.80;67.60;;;;;;4791977;29;92427;-71
2022/08/27 14:27:56;;;;;;;4.75;3.58;;;26.60;67.20;;;;;;4810169;29;91716;-74
2022/08/27 14:30:25;;;;;;;4.57;2.67;;;26.40;67.60;;;;;;4804392;29;91094;-72
2022/08/27 14:32:52;;;;;;;4.80;3.13;;;26.40;67.40;;;;;;4804087;29;91927;-71
2022/08/27 14:35:18;;;;;;;5.22;2.55;;;26.30;68.80;;;;;;4799254;29;92095;-74
2022/08/27 14:37:44;;;;;;;4.88;2.60;;;26.50;68.40;;;;;;4803745;29;93117;-72
2022/08/27 14:40:12;;;;;;;5.20;2.83;;;26.40;68.10;;;;;;4804387;29;91869;-71
2022/08/27 14:42:39;;;;;;;4.80;3.33;;;26.30;69.20;;;;;;4802802;29;91820;-73
2022/08/27 14:45:06;;;;;;;4.65;2.78;;;26.30;68.70;;;;;;4803448;29;92033;-71
2022/08/27 14:47:35;;;;;;;5.18;2.78;;;26.30;69.10;;;;;;4805983;29;91987;-71
2022/08/27 14:50:01;;;;;;;5.95;3.95;;;26.40;68.80;;;;;;4803263;29;92503;-73
2022/08/27 14:52:27;;;;;;;6.10;2.78;;;26.10;68.90;;;;;;4792377;29;91792;-72
2022/08/27 14:54:52;;;;;;;5.32;2.97;;;26.10;68.50;;;;;;4803653;29;91917;-72
2022/08/27 14:57:18;;;;;;;5.25;2.50;;;26.20;68.20;;;;;;4802888;29;92012;-72
2022/08/27 14:59:44;;;;;;;4.97;3.05;;;26.40;69.40;;;;;;4803438;29;91566;-72
2022/08/27 15:02:12;;;;;;;6.13;2.80;;;26.50;68.40;;;;;;4799987;29;93316;-73
2022/08/27 15:04:38;;;;;;;4.20;2.47;;;26.30;70.00;;;;;;4803183;29;93244;-70
2022/08/27 15:07:04;;;;;;;5.78;3.22;;;25.90;71.90;;;;;;4803428;29;91365;-72
2022/08/27 15:09:30;;;;;;;5.38;3.05;;;25.70;72.50;;;;;;4798624;29;91538;-72
2022/08/27 15:11:57;;;;;;;5.68;3.33;;;25.40;73.10;;;;;;4797620;29;91618;-72
2022/08/27 15:14:24;;;;;;;5.40;3.28;;;25.60;72.80;;;;;;4811441;29;92175;-72
2022/08/27 15:16:51;;;;;;;6.00;3.88;;;25.50;74.50;;;;;;4806956;29;91778;-72
2022/08/27 15:19:19;;;;;;;6.90;4.35;;;25.40;74.60;;;;;;4813698;29;91217;-71
2022/08/27 15:21:47;;;;;;;4.53;2.50;;;25.50;75.40;;;;;;4802645;29;92182;-72
2022/08/27 15:24:25;;;;;;;6.18;3.30;;;25.50;74.50;;;;;;4799314;29;92172;-73
2022/08/27 15:26:58;;;;;;;6.00;3.90;;;25.50;74.70;;;;;;4798302;29;92285;-71
2022/08/27 15:29:24;;;;;;;7.50;4.60;;;25.40;75.30;;;;;;4794042;29;91867;-72
2022/08/27 15:31:51;;;;;;;5.68;3.80;;;25.60;75.90;;;;;;4800200;29;93634;-71
2022/08/27 15:34:17;;;;;;;7.93;4.28;;;25.60;75.60;;;;;;4807224;29;92897;-74
2022/08/27 15:36:42;;;;;;;5.85;4.03;;;25.50;75.10;;;;;;4798807;29;91518;-74
2022/08/27 15:39:08;;;;;;;7.95;4.95;;;25.60;75.00;;;;;;4804324;29;91498;-74
2022/08/27 15:41:37;;;;;;;9.45;5.53;;;25.50;76.30;;;;;;4802462;29;92788;-73
2022/08/27 15:44:03;;;;;;;6.80;4.13;;;25.50;76.20;;;;;;4802264;29;91478;-74
2022/08/27 15:46:29;;;;;;;6.43;3.90;;;25.40;76.70;;;;;;4803121;29;92230;-73
2022/08/27 15:48:54;;;;;;;7.97;4.35;;;25.50;75.70;;;;;;4802557;29;91397;-75
2022/08/27 15:51:33;;;;;;;5.10;2.72;;;25.40;74.90;;;;;;4802048;29;93284;-69
2022/08/27 15:54:00;;;;;;;4.75;2.70;;;25.30;72.60;;;;;;4803038;29;94657;-74
2022/08/27 15:56:26;;;;;;;3.33;1.98;;;25.30;72.10;;;;;;4806286;29;92116;-74
2022/08/27 15:58:53;;;;;;;4.13;2.03;;;25.10;71.60;;;;;;4806503;29;91620;-72
2022/08/27 16:01:27;;;;;;;2.92;1.63;;;25.00;71.30;;;;;;4804326;29;92011;-73
2022/08/27 16:03:54;;;;;;;3.33;2.03;;;24.80;72.80;;;;;;4813140;29;91928;-73
2022/08/27 16:06:20;;;;;;;3.08;1.50;;;24.60;73.60;;;;;;4805856;29;92172;-74
2022/08/27 16:08:46;;;;;;;2.92;1.52;;;24.60;73.50;;;;;;4806313;29;91139;-72
2022/08/27 16:11:11;;;;;;;2.88;1.80;;;24.60;72.90;;;;;;4800748;29;91687;-72
2022/08/27 16:13:37;;;;;;;4.18;1.30;;;24.50;75.00;;;;;;4809560;29;92127;-73